Terminal Aerodrome Forecast
Issued by NWS

Home | Current Version | Previous Version | Text Only | Print | Product List | Glossary On
Versions: 1 2 3 4 5 6 7 8 9 10 11 12 13 14 15 16 17 18 19 20 21 22
000
FTUS44 KSJT 251600 AAA
TAFJCT
TAF AMD
KJCT 251648Z 2517/2612 18010G18KT P6SM BKN020
     FM251800 20012G20KT P6SM VCTS BKN025CB
     FM252000 22012G20KT P6SM SKC
     FM260000 17009KT P6SM SKC
     FM260700 17004KT P6SM BKN012=

USA.gov is the U.S. government's official web portal to all federal, state and local government web resources and services.